createdAt,value
2023-09-30T00:00:22.090Z,68.09
2023-09-30T00:01:16.061Z,67.67
2023-09-30T00:01:50.953Z,67.57
2023-09-30T00:02:24.928Z,67.75
2023-09-30T00:02:59.267Z,67.96
2023-09-30T00:03:33.244Z,67.91
2023-09-30T00:04:08.502Z,68.11
2023-09-30T00:04:42.180Z,68.23
2023-09-30T00:05:16.383Z,68.39
2023-09-30T00:05:49.716Z,68.39
2023-09-30T00:06:23.249Z,68.41
2023-09-30T00:06:56.740Z,68.46
2023-09-30T00:07:30.239Z,68.71
2023-09-30T00:08:04.544Z,68.98
2023-09-30T00:08:40.546Z,68.83
2023-09-30T00:09:14.864Z,68.68
2023-09-30T00:09:48.521Z,68.60
2023-09-30T00:10:22.002Z,68.94
2023-09-30T00:10:56.021Z,68.84
2023-09-30T00:11:29.306Z,68.86
2023-09-30T00:12:03.233Z,68.90
2023-09-30T00:12:38.837Z,69.01
2023-09-30T00:13:15.991Z,69.07
2023-09-30T00:13:52.680Z,69.17
2023-09-30T00:14:27.404Z,69.37
2023-09-30T00:15:00.873Z,69.59
2023-09-30T00:15:35.132Z,69.75
2023-09-30T00:16:08.514Z,69.81
2023-09-30T00:16:42.033Z,70.11
2023-09-30T00:17:16.444Z,70.17
2023-09-30T00:17:50.010Z,70.25
2023-09-30T00:18:23.495Z,70.20
2023-09-30T00:18:57.194Z,70.12
2023-09-30T00:19:30.930Z,70.30
2023-09-30T00:20:05.457Z,70.47
2023-09-30T00:20:38.853Z,70.57
2023-09-30T00:21:12.954Z,70.58
2023-09-30T00:21:46.520Z,70.55
2023-09-30T00:22:19.960Z,70.77
2023-09-30T00:22:53.262Z,70.76
2023-09-30T00:23:26.677Z,70.83
2023-09-30T00:24:00.227Z,70.85
2023-09-30T00:24:33.832Z,71.12
2023-09-30T00:25:07.887Z,71.45
2023-09-30T00:25:41.260Z,71.30
2023-09-30T00:26:15.591Z,71.54
2023-09-30T00:26:52.018Z,71.48
2023-09-30T00:27:25.566Z,71.50
2023-09-30T00:27:58.925Z,71.60
2023-09-30T00:28:32.217Z,71.68
2023-09-30T00:29:06.425Z,71.69
2023-09-30T00:29:40.021Z,71.55
2023-09-30T00:30:13.764Z,71.91
2023-09-30T00:30:49.079Z,72.02
2023-09-30T00:31:22.888Z,71.93
2023-09-30T00:31:56.269Z,72.10
2023-09-30T00:32:29.930Z,72.12
2023-09-30T00:33:04.429Z,72.24
2023-09-30T00:33:38.438Z,72.36
2023-09-30T00:34:11.891Z,72.49
2023-09-30T00:34:46.110Z,72.62
2023-09-30T00:35:19.460Z,72.70
2023-09-30T00:35:52.858Z,72.88
2023-09-30T00:36:26.507Z,72.97
2023-09-30T00:36:59.790Z,73.22
2023-09-30T00:37:33.887Z,73.74
2023-09-30T00:38:07.277Z,73.64
2023-09-30T00:38:41.440Z,73.95
2023-09-30T00:39:14.900Z,74.00
2023-09-30T00:39:48.387Z,73.93
2023-09-30T00:40:21.718Z,74.22
2023-09-30T00:40:55.188Z,74.37
2023-09-30T00:41:28.652Z,74.43
2023-09-30T00:42:02.040Z,74.42
2023-09-30T00:42:35.590Z,74.71
2023-09-30T00:43:19.794Z,74.70
2023-09-30T00:43:53.212Z,75.17
2023-09-30T00:44:28.155Z,75.30
2023-09-30T00:45:06.369Z,75.05
2023-09-30T00:45:40.179Z,74.87
2023-09-30T00:46:49.577Z,75.53
2023-09-30T00:47:24.307Z,75.49
2023-09-30T00:47:58.050Z,75.88
2023-09-30T00:48:31.876Z,75.98
2023-09-30T00:49:05.547Z,76.04
2023-09-30T00:49:40.009Z,76.01
2023-09-30T00:50:14.812Z,76.18
2023-09-30T00:50:48.289Z,75.93
2023-09-30T00:51:22.658Z,76.37
2023-09-30T00:51:57.059Z,76.22
2023-09-30T00:52:34.552Z,76.64
2023-09-30T00:53:08.966Z,76.20
2023-09-30T00:53:45.709Z,76.27
2023-09-30T00:54:20.501Z,76.36
2023-09-30T00:54:56.392Z,76.50
2023-09-30T00:55:29.980Z,76.25
2023-09-30T00:56:03.927Z,76.66
2023-09-30T00:56:44.780Z,76.23
2023-09-30T00:57:21.023Z,76.70
2023-09-30T00:57:54.930Z,76.50
2023-09-30T00:58:30.325Z,76.68
2023-09-30T00:59:05.397Z,76.97
2023-09-30T00:59:40.662Z,77.08
2023-09-30T01:00:14.794Z,77.09
2023-09-30T01:00:48.676Z,77.17
2023-09-30T01:01:23.591Z,77.64
2023-09-30T01:02:00.380Z,77.44
2023-09-30T01:02:36.292Z,77.81
2023-09-30T01:03:13.419Z,77.31
2023-09-30T01:03:48.258Z,77.52
2023-09-30T01:04:22.641Z,77.64
2023-09-30T01:04:57.295Z,77.39
2023-09-30T01:05:31.839Z,77.63
2023-09-30T01:06:05.468Z,77.36
2023-09-30T01:06:39.465Z,77.40
2023-09-30T01:07:12.910Z,77.59
2023-09-30T01:07:46.397Z,77.91
2023-09-30T01:08:21.369Z,77.93
2023-09-30T01:08:55.241Z,77.92
2023-09-30T01:09:29.265Z,78.17
2023-09-30T01:10:03.896Z,78.16
2023-09-30T01:10:37.360Z,78.19
2023-09-30T01:11:10.861Z,78.13
2023-09-30T01:11:45.765Z,78.18
2023-09-30T01:12:19.367Z,78.30
2023-09-30T01:12:52.797Z,78.28
2023-09-30T01:13:34.341Z,78.19
2023-09-30T01:14:41.921Z,78.05
2023-09-30T01:15:15.738Z,77.93
2023-09-30T01:15:49.148Z,77.70
2023-09-30T01:16:23.127Z,77.63
2023-09-30T01:16:57.311Z,77.55
2023-09-30T01:17:30.926Z,77.38
2023-09-30T01:18:05.426Z,77.51
2023-09-30T01:18:41.521Z,77.38
2023-09-30T01:19:15.125Z,77.49
2023-09-30T01:19:48.583Z,77.58
2023-09-30T01:20:23.565Z,77.46
2023-09-30T01:20:57.980Z,77.37
2023-09-30T01:21:35.758Z,77.18
2023-09-30T01:22:11.290Z,77.14
2023-09-30T01:22:46.800Z,77.04
2023-09-30T01:23:20.690Z,76.98
2023-09-30T01:23:54.061Z,76.71
2023-09-30T01:24:28.605Z,76.61
2023-09-30T01:25:01.988Z,76.58
2023-09-30T01:25:36.401Z,76.73
2023-09-30T01:26:14.076Z,76.71
2023-09-30T01:26:47.422Z,76.92
2023-09-30T01:27:21.053Z,76.63
2023-09-30T01:27:55.309Z,76.67
2023-09-30T01:28:28.626Z,76.73
2023-09-30T01:29:01.912Z,76.73
2023-09-30T01:29:36.290Z,76.51
2023-09-30T01:30:12.471Z,76.53
2023-09-30T01:30:46.638Z,76.54
2023-09-30T01:31:20.044Z,76.65
2023-09-30T01:31:53.646Z,76.60
2023-09-30T01:32:27.348Z,76.60
2023-09-30T01:33:01.899Z,76.53
2023-09-30T01:33:35.661Z,76.47
2023-09-30T01:34:12.100Z,76.33
2023-09-30T01:34:45.596Z,76.21
2023-09-30T01:35:19.008Z,76.24
2023-09-30T01:35:52.642Z,76.22
2023-09-30T01:36:26.131Z,76.15
2023-09-30T01:36:59.592Z,76.12
2023-09-30T01:37:33.446Z,76.01
2023-09-30T01:38:06.931Z,76.02
2023-09-30T01:38:40.412Z,75.64
2023-09-30T01:39:15.827Z,75.78
2023-09-30T01:39:51.677Z,75.90
2023-09-30T01:40:25.056Z,75.90
2023-09-30T01:41:00.892Z,76.11
2023-09-30T01:41:34.977Z,76.15
2023-09-30T01:42:08.388Z,76.01
2023-09-30T01:42:42.063Z,75.86
2023-09-30T01:43:16.593Z,75.80
2023-09-30T01:43:50.384Z,75.93
2023-09-30T01:44:23.780Z,75.76
2023-09-30T01:44:58.308Z,75.67
2023-09-30T01:45:31.776Z,75.73
2023-09-30T01:46:06.801Z,75.87
2023-09-30T01:46:40.825Z,75.96
2023-09-30T01:47:14.239Z,75.94
2023-09-30T01:47:47.813Z,76.00
2023-09-30T01:48:21.381Z,75.86
2023-09-30T01:48:54.883Z,75.85
2023-09-30T01:50:44.410Z,75.67
2023-09-30T01:51:18.054Z,75.64
2023-09-30T01:51:51.701Z,75.77
2023-09-30T01:52:25.611Z,75.87
2023-09-30T01:52:59.068Z,75.95
2023-09-30T01:53:32.592Z,75.95
2023-09-30T01:54:06.258Z,76.05
2023-09-30T01:54:39.929Z,76.07
2023-09-30T01:55:13.662Z,75.96
2023-09-30T01:55:47.170Z,76.04
2023-09-30T01:56:21.468Z,75.90
2023-09-30T01:56:55.276Z,76.05
2023-09-30T01:57:28.700Z,75.89
2023-09-30T01:58:02.208Z,76.20
2023-09-30T01:58:35.811Z,76.18
2023-09-30T01:59:09.211Z,76.18
2023-09-30T01:59:42.673Z,76.23
2023-09-30T02:00:16.138Z,76.31
2023-09-30T02:00:49.632Z,76.18
2023-09-30T02:01:23.609Z,76.13
2023-09-30T02:01:58.221Z,76.17
2023-09-30T02:02:32.457Z,76.08
2023-09-30T02:03:06.225Z,75.91
2023-09-30T02:03:39.912Z,75.76
2023-09-30T02:04:16.851Z,76.03
2023-09-30T02:04:50.347Z,75.91
2023-09-30T02:05:24.718Z,76.09
2023-09-30T02:06:01.029Z,75.95
2023-09-30T02:06:35.129Z,75.91
2023-09-30T02:07:08.744Z,76.09
2023-09-30T02:07:42.329Z,76.07
2023-09-30T02:08:16.975Z,76.12
2023-09-30T02:08:50.728Z,76.06
2023-09-30T02:09:24.403Z,76.21
2023-09-30T02:09:59.129Z,75.87
2023-09-30T02:10:34.698Z,76.04
2023-09-30T02:11:08.310Z,76.13
2023-09-30T02:11:42.802Z,76.09
2023-09-30T02:12:16.465Z,76.03
2023-09-30T02:12:50.766Z,76.06
2023-09-30T02:13:24.368Z,76.02
2023-09-30T02:13:58.207Z,76.08
2023-09-30T02:14:33.578Z,76.05
2023-09-30T02:15:08.633Z,75.81
2023-09-30T02:15:45.266Z,75.80
2023-09-30T02:16:18.823Z,75.94
2023-09-30T02:16:52.315Z,75.97
2023-09-30T02:17:26.066Z,76.04
2023-09-30T02:18:01.796Z,76.00
2023-09-30T02:18:35.653Z,75.92
2023-09-30T02:19:12.445Z,76.01
2023-09-30T02:19:46.424Z,75.88
2023-09-30T02:20:28.257Z,75.83
2023-09-30T02:21:01.806Z,76.18
2023-09-30T02:21:37.138Z,76.19
2023-09-30T02:22:10.568Z,76.32
2023-09-30T02:22:45.246Z,76.17
2023-09-30T02:23:20.319Z,76.06
2023-09-30T02:23:56.788Z,76.36
2023-09-30T02:24:30.620Z,76.34
2023-09-30T02:25:08.672Z,76.26
2023-09-30T02:25:43.341Z,76.47
2023-09-30T02:26:17.246Z,76.65
2023-09-30T02:26:50.712Z,76.52
2023-09-30T02:27:24.172Z,76.59
2023-09-30T02:27:58.550Z,76.62
2023-09-30T02:28:33.763Z,76.62
2023-09-30T02:29:09.034Z,76.52
2023-09-30T02:29:42.712Z,76.60
2023-09-30T02:30:17.615Z,76.62
2023-09-30T02:30:51.471Z,76.49
2023-09-30T02:31:25.400Z,76.72
2023-09-30T02:31:59.694Z,76.85
2023-09-30T02:32:34.955Z,76.65
2023-09-30T02:33:08.686Z,76.80
2023-09-30T02:33:42.607Z,76.91
2023-09-30T02:34:16.418Z,77.15
2023-09-30T02:34:49.935Z,77.28
2023-09-30T02:35:23.579Z,77.19
2023-09-30T02:35:57.213Z,77.26
2023-09-30T02:36:30.932Z,77.65
2023-09-30T02:37:04.623Z,77.51
2023-09-30T02:37:38.621Z,77.29
2023-09-30T02:38:12.544Z,77.38
2023-09-30T02:38:47.786Z,77.84
2023-09-30T02:39:21.358Z,77.88
2023-09-30T02:39:55.008Z,78.06
2023-09-30T02:40:28.796Z,77.93
2023-09-30T02:41:04.264Z,77.99
2023-09-30T02:41:38.923Z,78.13
2023-09-30T02:42:12.516Z,78.12
2023-09-30T02:42:46.005Z,78.00
2023-09-30T02:43:19.390Z,78.32
2023-09-30T02:43:52.757Z,78.12
2023-09-30T02:44:26.193Z,78.14
2023-09-30T02:45:02.853Z,78.04
2023-09-30T02:45:39.536Z,78.08
2023-09-30T02:46:13.940Z,78.24
2023-09-30T02:46:47.468Z,78.15
2023-09-30T02:47:21.608Z,78.28
2023-09-30T02:47:55.186Z,78.17
2023-09-30T02:48:29.306Z,78.23
2023-09-30T02:49:03.806Z,78.17
2023-09-30T02:49:38.401Z,78.23
2023-09-30T02:50:17.829Z,78.09
2023-09-30T02:50:51.200Z,78.53
2023-09-30T02:51:24.943Z,78.31
2023-09-30T02:51:58.362Z,78.23
2023-09-30T02:52:32.422Z,78.86
2023-09-30T02:53:05.876Z,78.48
2023-09-30T02:53:40.007Z,78.56
2023-09-30T02:54:16.835Z,78.74
2023-09-30T02:54:50.574Z,79.07
2023-09-30T02:55:24.059Z,78.93
2023-09-30T02:56:01.315Z,79.19
2023-09-30T02:56:35.264Z,79.15
2023-09-30T02:57:10.920Z,79.22
2023-09-30T02:57:45.482Z,79.29
2023-09-30T02:58:19.651Z,78.81
2023-09-30T02:58:54.250Z,79.04
2023-09-30T02:59:28.829Z,79.17
2023-09-30T03:00:13.976Z,79.17
2023-09-30T03:00:50.937Z,79.39
2023-09-30T03:01:25.116Z,79.40
2023-09-30T03:01:58.909Z,79.40
2023-09-30T03:02:32.533Z,79.47
2023-09-30T03:03:06.117Z,79.20
2023-09-30T03:03:41.227Z,79.16
2023-09-30T03:04:14.751Z,79.41
2023-09-30T03:04:49.154Z,79.21
2023-09-30T03:05:24.778Z,79.22
2023-09-30T03:05:58.832Z,79.26
2023-09-30T03:06:32.825Z,79.25
2023-09-30T03:07:06.728Z,79.76
2023-09-30T03:07:40.216Z,79.77
2023-09-30T03:08:13.733Z,79.61
2023-09-30T03:08:48.201Z,79.90
2023-09-30T03:09:22.184Z,79.77
2023-09-30T03:09:55.638Z,79.84
2023-09-30T03:10:29.117Z,79.92
2023-09-30T03:11:03.466Z,79.78
2023-09-30T03:11:37.042Z,79.74
2023-09-30T03:12:10.706Z,79.88
2023-09-30T03:12:44.228Z,79.55
2023-09-30T03:13:19.870Z,79.57
2023-09-30T03:13:53.826Z,80.00
2023-09-30T03:14:27.329Z,80.01
2023-09-30T03:15:00.742Z,80.13
2023-09-30T03:15:34.886Z,79.87
2023-09-30T03:16:08.297Z,80.07
2023-09-30T03:16:42.840Z,80.01
2023-09-30T03:17:16.310Z,80.11
2023-09-30T03:17:53.437Z,80.06
2023-09-30T03:18:28.056Z,80.14
2023-09-30T03:19:01.530Z,80.00
2023-09-30T03:19:35.109Z,80.21
2023-09-30T03:20:13.387Z,80.16
2023-09-30T03:20:46.963Z,80.09
2023-09-30T03:21:21.340Z,80.20
2023-09-30T03:21:54.727Z,80.12
2023-09-30T03:22:28.499Z,80.04
2023-09-30T03:23:03.452Z,80.04
2023-09-30T03:23:36.959Z,80.15
2023-09-30T03:24:10.873Z,80.24
2023-09-30T03:24:44.419Z,80.61
2023-09-30T03:25:20.001Z,80.49
2023-09-30T03:25:53.337Z,80.52
2023-09-30T03:26:26.713Z,80.47
2023-09-30T03:27:00.043Z,80.71
2023-09-30T03:27:34.986Z,80.64
2023-09-30T03:28:08.985Z,80.56
2023-09-30T03:28:42.315Z,80.76
2023-09-30T03:29:15.666Z,80.66
2023-09-30T03:29:49.007Z,80.67
2023-09-30T03:30:22.593Z,80.80
2023-09-30T03:30:58.007Z,80.60
2023-09-30T03:31:31.677Z,80.57
2023-09-30T03:32:05.558Z,80.77
2023-09-30T03:32:39.829Z,80.78
2023-09-30T03:33:13.632Z,80.78
2023-09-30T03:33:48.101Z,81.16
2023-09-30T03:34:21.825Z,81.02
2023-09-30T03:34:55.219Z,81.08
2023-09-30T03:35:28.555Z,81.34
2023-09-30T03:36:02.042Z,81.24
2023-09-30T03:36:37.087Z,81.20
2023-09-30T03:37:11.347Z,81.05
2023-09-30T03:37:46.141Z,81.44
2023-09-30T03:38:21.544Z,81.60
2023-09-30T03:38:56.010Z,81.72
2023-09-30T03:39:29.228Z,82.14
2023-09-30T03:40:13.213Z,82.20
2023-09-30T03:40:50.332Z,82.22
2023-09-30T03:41:24.052Z,82.78
2023-09-30T03:42:00.775Z,82.77
2023-09-30T03:42:34.084Z,83.30
2023-09-30T03:43:07.246Z,83.45
2023-09-30T03:43:42.734Z,83.48
2023-09-30T03:44:15.969Z,83.47
2023-09-30T03:44:52.796Z,83.25
2023-09-30T03:45:26.194Z,83.30
2023-09-30T03:45:59.540Z,83.26
2023-09-30T03:46:33.021Z,83.30
2023-09-30T03:47:06.332Z,83.26
2023-09-30T03:47:41.135Z,83.22
2023-09-30T03:48:14.525Z,83.24
2023-09-30T03:48:48.559Z,83.46
2023-09-30T03:49:22.414Z,83.50
2023-09-30T03:49:55.858Z,83.53
2023-09-30T03:50:31.279Z,83.54
2023-09-30T03:51:17.225Z,83.61
2023-09-30T03:51:52.192Z,83.89
2023-09-30T03:52:27.042Z,83.60
2023-09-30T03:53:03.968Z,83.93
2023-09-30T03:53:37.291Z,83.85
2023-09-30T03:54:10.594Z,83.78
2023-09-30T03:54:43.944Z,83.85
2023-09-30T03:55:19.175Z,83.90
2023-09-30T03:55:56.109Z,83.75
2023-09-30T03:56:29.401Z,84.19
2023-09-30T03:57:02.785Z,84.28
2023-09-30T03:57:36.257Z,84.39
2023-09-30T03:58:09.426Z,84.32
2023-09-30T03:58:43.413Z,84.53
2023-09-30T03:59:17.366Z,84.38
2023-09-30T03:59:50.542Z,84.34
2023-09-30T04:00:25.765Z,84.21
2023-09-30T04:00:59.390Z,84.05
2023-09-30T04:01:32.853Z,84.18
2023-09-30T04:02:07.740Z,84.74
2023-09-30T04:02:44.460Z,84.46
2023-09-30T04:03:18.145Z,84.27
2023-09-30T04:03:51.850Z,84.61
2023-09-30T04:04:25.904Z,84.63
2023-09-30T04:05:00.447Z,84.49
2023-09-30T04:05:37.949Z,84.43
2023-09-30T04:06:11.384Z,84.87
2023-09-30T04:06:44.748Z,84.75
2023-09-30T04:07:18.231Z,84.94
2023-09-30T04:07:52.345Z,84.91
2023-09-30T04:08:25.629Z,84.68
2023-09-30T04:09:00.399Z,84.85
2023-09-30T04:09:34.563Z,85.25
2023-09-30T04:10:07.906Z,85.38
2023-09-30T04:10:41.125Z,85.17
2023-09-30T04:11:19.362Z,85.32
2023-09-30T04:11:52.693Z,85.32
2023-09-30T04:12:27.209Z,85.46
2023-09-30T04:13:00.475Z,85.51
2023-09-30T04:13:34.524Z,85.29
2023-09-30T04:14:09.343Z,85.13
2023-09-30T04:14:42.800Z,85.07
2023-09-30T04:15:16.826Z,85.30
2023-09-30T04:15:50.910Z,85.11
2023-09-30T04:16:24.433Z,85.28
2023-09-30T04:16:57.873Z,85.57
2023-09-30T04:17:32.303Z,85.29
2023-09-30T04:18:09.024Z,85.31
2023-09-30T04:18:42.731Z,85.07
2023-09-30T04:19:16.067Z,85.61
2023-09-30T04:19:52.262Z,85.37
2023-09-30T04:20:28.493Z,85.50
2023-09-30T04:21:03.585Z,85.42
2023-09-30T04:21:40.341Z,85.33
2023-09-30T04:22:14.463Z,85.53
2023-09-30T04:22:50.159Z,85.42
2023-09-30T04:23:24.042Z,85.35
2023-09-30T04:23:58.297Z,85.34
2023-09-30T04:24:32.019Z,85.36
2023-09-30T04:25:09.905Z,85.46
2023-09-30T04:25:44.718Z,85.70
2023-09-30T04:26:18.064Z,85.49
2023-09-30T04:26:53.873Z,85.55
2023-09-30T04:27:28.416Z,85.56
2023-09-30T04:28:03.987Z,85.69
2023-09-30T04:28:37.306Z,86.08
2023-09-30T04:29:12.072Z,86.45
2023-09-30T04:29:45.624Z,86.17
2023-09-30T04:30:19.574Z,86.17
2023-09-30T04:30:53.128Z,86.11
2023-09-30T04:31:26.648Z,86.41
2023-09-30T04:32:00.129Z,86.63
2023-09-30T04:32:33.517Z,86.39
2023-09-30T04:33:07.223Z,86.16
2023-09-30T04:33:41.129Z,86.57
2023-09-30T04:34:15.078Z,86.12
2023-09-30T04:34:48.439Z,86.61
2023-09-30T04:35:21.597Z,86.40
2023-09-30T04:35:54.813Z,86.77
2023-09-30T04:36:28.132Z,86.47
2023-09-30T04:37:01.285Z,86.54
2023-09-30T04:37:35.370Z,86.21
2023-09-30T04:38:09.052Z,86.41
2023-09-30T04:38:42.503Z,86.17
2023-09-30T04:39:17.236Z,86.48
2023-09-30T04:39:50.532Z,86.33
2023-09-30T04:40:23.816Z,86.57
2023-09-30T04:40:57.845Z,86.66
2023-09-30T04:41:31.249Z,86.66
2023-09-30T04:42:05.668Z,87.01
2023-09-30T04:42:38.915Z,86.59
2023-09-30T04:43:12.226Z,86.52
2023-09-30T04:43:45.501Z,86.44
2023-09-30T04:44:18.809Z,86.66
2023-09-30T04:44:52.611Z,86.50
2023-09-30T04:45:27.552Z,86.68
2023-09-30T04:46:00.906Z,86.59
2023-09-30T04:46:35.323Z,86.38
2023-09-30T04:47:08.613Z,86.49
2023-09-30T04:47:42.048Z,86.38
2023-09-30T04:48:15.410Z,86.56
2023-09-30T04:48:50.015Z,86.89
2023-09-30T04:49:24.900Z,86.82
2023-09-30T04:49:59.549Z,86.62
2023-09-30T04:50:32.958Z,86.60
2023-09-30T04:51:10.312Z,86.77
2023-09-30T04:51:44.162Z,86.74
2023-09-30T04:52:17.591Z,86.80
2023-09-30T04:52:52.777Z,86.77
2023-09-30T04:53:26.241Z,86.62
2023-09-30T04:54:00.949Z,86.93
2023-09-30T04:54:36.644Z,87.04
2023-09-30T04:55:10.312Z,87.12
2023-09-30T04:55:43.557Z,86.99
2023-09-30T04:56:16.667Z,86.77
2023-09-30T04:56:49.899Z,86.70
2023-09-30T04:57:23.409Z,86.51
2023-09-30T04:57:56.614Z,86.62
2023-09-30T04:58:31.037Z,86.79
2023-09-30T04:59:05.563Z,86.64
2023-09-30T04:59:38.779Z,86.86
2023-09-30T05:00:26.909Z,86.75
2023-09-30T05:01:00.782Z,87.27
2023-09-30T05:01:34.224Z,87.09
2023-09-30T05:02:08.276Z,86.91
2023-09-30T05:02:41.638Z,86.95
2023-09-30T05:03:15.093Z,86.85
2023-09-30T05:03:50.929Z,86.76
2023-09-30T05:04:25.651Z,86.89
2023-09-30T05:04:58.850Z,86.98
2023-09-30T05:05:35.144Z,86.98
2023-09-30T05:06:09.250Z,86.86
2023-09-30T05:06:42.845Z,86.83
2023-09-30T05:07:16.096Z,86.97
2023-09-30T05:07:49.681Z,86.86
2023-09-30T05:08:24.426Z,86.99
2023-09-30T05:08:57.828Z,86.79
2023-09-30T05:09:31.179Z,86.80
2023-09-30T05:10:11.708Z,86.92
2023-09-30T05:10:45.001Z,86.97
2023-09-30T05:11:18.281Z,86.72
2023-09-30T05:11:51.654Z,87.00
2023-09-30T05:12:25.077Z,86.92
2023-09-30T05:12:58.794Z,86.85
2023-09-30T05:13:32.166Z,86.82
2023-09-30T05:14:06.723Z,86.68
2023-09-30T05:14:40.263Z,86.67
2023-09-30T05:15:14.842Z,86.60
2023-09-30T05:15:48.154Z,86.40
2023-09-30T05:16:21.504Z,86.71
2023-09-30T05:16:54.973Z,86.79
2023-09-30T05:17:30.034Z,86.98
2023-09-30T05:18:03.797Z,86.84
2023-09-30T05:18:37.175Z,86.64
2023-09-30T05:19:10.541Z,86.59
2023-09-30T05:19:43.697Z,86.51
2023-09-30T05:20:19.225Z,86.82
2023-09-30T05:20:52.728Z,86.93
2023-09-30T05:21:26.178Z,86.98
2023-09-30T05:21:59.781Z,86.78
2023-09-30T05:22:33.013Z,87.18
2023-09-30T05:23:08.467Z,86.92
2023-09-30T05:23:41.804Z,86.79
2023-09-30T05:24:15.186Z,86.78
2023-09-30T05:24:49.163Z,86.78
2023-09-30T05:25:27.156Z,86.53
2023-09-30T05:26:00.575Z,86.84
2023-09-30T05:26:34.348Z,86.94
2023-09-30T05:27:07.940Z,86.62
2023-09-30T05:27:41.207Z,86.68
2023-09-30T05:28:15.056Z,86.69
2023-09-30T05:28:48.342Z,86.61
2023-09-30T05:29:21.551Z,86.50
2023-09-30T05:29:55.336Z,86.52
2023-09-30T05:30:28.750Z,86.33
2023-09-30T05:31:03.050Z,86.61
2023-09-30T05:31:36.550Z,86.47
2023-09-30T05:32:10.182Z,86.22
2023-09-30T05:32:43.501Z,86.39
2023-09-30T05:33:17.961Z,86.28
2023-09-30T05:33:51.704Z,86.21
2023-09-30T05:34:25.640Z,86.11
2023-09-30T05:34:59.265Z,86.36
2023-09-30T05:35:33.573Z,86.37
2023-09-30T05:36:06.918Z,86.35
2023-09-30T05:36:40.815Z,86.25
2023-09-30T05:37:14.331Z,86.30
2023-09-30T05:37:47.770Z,86.00
2023-09-30T05:38:21.759Z,85.97
2023-09-30T05:38:56.709Z,86.18
2023-09-30T05:39:30.298Z,86.09
2023-09-30T05:40:06.556Z,85.99
2023-09-30T05:40:40.333Z,86.13
2023-09-30T05:41:15.233Z,86.15
2023-09-30T05:41:48.556Z,86.15
2023-09-30T05:42:23.527Z,86.14
2023-09-30T05:42:59.655Z,86.16
2023-09-30T05:43:33.772Z,86.05
2023-09-30T05:44:08.837Z,86.04
2023-09-30T05:44:43.361Z,85.94
2023-09-30T05:45:17.170Z,85.76
2023-09-30T05:45:50.900Z,85.79
2023-09-30T05:46:24.494Z,85.66
2023-09-30T05:46:57.987Z,85.54
2023-09-30T05:47:31.308Z,85.58
2023-09-30T05:48:07.229Z,85.34
2023-09-30T05:48:41.185Z,85.27
2023-09-30T05:49:15.325Z,85.28
2023-09-30T05:49:48.669Z,85.28
2023-09-30T05:50:26.498Z,85.19
2023-09-30T05:50:59.943Z,85.12
2023-09-30T05:51:34.460Z,84.95
2023-09-30T05:52:07.797Z,84.99
2023-09-30T05:52:41.183Z,84.97
2023-09-30T05:53:15.435Z,84.95
2023-09-30T05:53:49.564Z,84.69
2023-09-30T05:54:23.784Z,84.68
2023-09-30T05:54:57.062Z,84.80
2023-09-30T05:55:30.630Z,84.81
2023-09-30T05:56:04.769Z,84.69
2023-09-30T05:56:44.464Z,84.56
2023-09-30T05:57:17.800Z,84.80
2023-09-30T05:57:51.428Z,84.75
2023-09-30T05:58:25.160Z,84.77
2023-09-30T05:58:58.935Z,84.80
2023-09-30T05:59:32.349Z,84.71
2023-09-30T06:00:12.985Z,84.85
2023-09-30T06:00:46.417Z,84.96
2023-09-30T06:01:20.409Z,84.75
2023-09-30T06:01:53.698Z,84.84
2023-09-30T06:02:26.939Z,84.73
2023-09-30T06:03:00.784Z,84.94
2023-09-30T06:03:35.513Z,84.90
2023-09-30T06:04:08.809Z,84.72
2023-09-30T06:04:42.206Z,84.69
2023-09-30T06:05:17.576Z,85.07
2023-09-30T06:05:50.826Z,85.13
2023-09-30T06:06:25.444Z,85.05
2023-09-30T06:06:59.434Z,85.00
2023-09-30T06:07:32.592Z,84.97
2023-09-30T06:08:06.118Z,84.86
2023-09-30T06:08:39.794Z,84.72
2023-09-30T06:09:13.195Z,84.77
2023-09-30T06:09:46.638Z,84.82
2023-09-30T06:10:20.179Z,85.12
2023-09-30T06:10:54.245Z,84.97
2023-09-30T06:11:29.809Z,85.00
2023-09-30T06:12:05.002Z,85.06
2023-09-30T06:12:38.289Z,84.91
2023-09-30T06:13:12.363Z,84.82
2023-09-30T06:13:45.596Z,84.80
2023-09-30T06:14:18.907Z,84.69
2023-09-30T06:14:54.461Z,84.90
2023-09-30T06:15:28.123Z,84.79
2023-09-30T06:16:03.849Z,84.81
2023-09-30T06:16:37.427Z,84.88
2023-09-30T06:17:10.614Z,84.69
2023-09-30T06:17:44.261Z,84.75
2023-09-30T06:18:17.658Z,84.54
2023-09-30T06:18:50.880Z,84.80
2023-09-30T06:19:24.833Z,84.77
2023-09-30T06:20:01.574Z,84.79
2023-09-30T06:20:34.842Z,84.72
2023-09-30T06:21:08.073Z,84.61
2023-09-30T06:21:41.308Z,84.78
2023-09-30T06:22:14.481Z,84.86
2023-09-30T06:22:48.711Z,84.75
2023-09-30T06:23:22.000Z,84.60
2023-09-30T06:23:55.375Z,84.52
2023-09-30T06:24:28.768Z,84.61
2023-09-30T06:25:02.202Z,84.54
2023-09-30T06:25:36.922Z,84.46
2023-09-30T06:26:10.966Z,84.62
2023-09-30T06:26:44.238Z,84.48
2023-09-30T06:27:17.490Z,84.50
2023-09-30T06:27:51.419Z,84.29
2023-09-30T06:28:27.413Z,84.33
2023-09-30T06:29:01.470Z,84.38
2023-09-30T06:29:35.230Z,84.39
2023-09-30T06:30:10.421Z,84.19
2023-09-30T06:30:46.905Z,84.11
2023-09-30T06:31:20.466Z,83.94
2023-09-30T06:31:53.897Z,83.96
2023-09-30T06:32:27.446Z,83.96
2023-09-30T06:33:02.107Z,83.81
2023-09-30T06:33:43.288Z,83.74
2023-09-30T06:34:16.556Z,83.70
2023-09-30T06:34:49.906Z,83.52
2023-09-30T06:35:23.876Z,83.69
2023-09-30T06:35:58.061Z,83.55
2023-09-30T06:36:31.273Z,83.39
2023-09-30T06:37:06.459Z,83.53
2023-09-30T06:37:40.521Z,83.22
2023-09-30T06:38:13.761Z,83.13
2023-09-30T06:38:49.591Z,83.31
2023-09-30T06:39:22.793Z,83.16
2023-09-30T06:39:57.025Z,82.96
2023-09-30T06:40:30.193Z,82.95
2023-09-30T06:41:03.505Z,82.89
2023-09-30T06:41:36.897Z,83.06
2023-09-30T06:42:10.502Z,82.88
2023-09-30T06:42:44.125Z,82.84
2023-09-30T06:43:17.912Z,82.97
2023-09-30T06:43:53.101Z,83.19
2023-09-30T06:44:26.471Z,83.03
2023-09-30T06:45:00.366Z,82.96
2023-09-30T06:45:34.528Z,82.96
2023-09-30T06:46:11.013Z,82.97
2023-09-30T06:46:44.828Z,82.99
2023-09-30T06:47:18.081Z,82.94
2023-09-30T06:47:51.236Z,82.77
2023-09-30T06:48:24.486Z,82.89
2023-09-30T06:48:58.004Z,82.85
2023-09-30T06:49:32.147Z,82.72
2023-09-30T06:50:09.067Z,82.74
2023-09-30T06:50:46.232Z,82.74
2023-09-30T06:51:19.533Z,82.68
2023-09-30T06:51:53.324Z,82.75
2023-09-30T06:52:26.571Z,82.81
2023-09-30T06:53:00.552Z,82.78
2023-09-30T06:53:33.899Z,82.76
2023-09-30T06:54:07.872Z,82.68
2023-09-30T06:54:41.277Z,82.50
2023-09-30T06:55:20.433Z,82.56
2023-09-30T06:55:53.929Z,82.47
2023-09-30T06:56:27.233Z,82.57
2023-09-30T06:57:01.101Z,82.42
2023-09-30T06:57:38.561Z,82.54
2023-09-30T06:58:12.132Z,82.40
2023-09-30T06:58:45.684Z,82.29
2023-09-30T06:59:18.888Z,81.96
2023-09-30T06:59:52.176Z,81.67
2023-09-30T07:00:27.106Z,81.37
2023-09-30T07:01:00.528Z,80.94
2023-09-30T07:01:33.863Z,80.39
2023-09-30T07:02:07.146Z,80.09
2023-09-30T07:02:41.765Z,79.92
2023-09-30T07:03:16.764Z,79.76
2023-09-30T07:03:50.558Z,79.11
2023-09-30T07:04:23.976Z,79.17
2023-09-30T07:04:57.500Z,79.04
2023-09-30T07:05:31.078Z,78.59
2023-09-30T07:06:05.195Z,78.29
2023-09-30T07:06:38.764Z,77.73
2023-09-30T07:07:12.077Z,77.65
2023-09-30T07:07:45.768Z,77.70
2023-09-30T07:08:19.306Z,77.45
2023-09-30T07:08:52.896Z,77.55
2023-09-30T07:09:26.386Z,76.79
2023-09-30T07:09:59.826Z,77.10
2023-09-30T07:10:33.216Z,77.16
2023-09-30T07:11:06.873Z,76.88
2023-09-30T07:11:40.302Z,76.58
2023-09-30T07:12:13.639Z,76.68
2023-09-30T07:12:46.839Z,76.52
2023-09-30T07:13:23.039Z,76.33
2023-09-30T07:13:56.993Z,76.54
2023-09-30T07:14:30.109Z,76.16
2023-09-30T07:15:05.442Z,76.11
2023-09-30T07:15:38.811Z,75.32
2023-09-30T07:16:12.409Z,76.20
2023-09-30T07:16:45.892Z,75.39
2023-09-30T07:17:19.016Z,75.79
2023-09-30T07:17:52.373Z,76.03
2023-09-30T07:18:26.406Z,75.69
2023-09-30T07:18:59.998Z,75.70
2023-09-30T07:19:33.633Z,75.76
2023-09-30T07:20:07.490Z,75.60
2023-09-30T07:20:40.940Z,75.56
2023-09-30T07:21:14.665Z,75.48
2023-09-30T07:21:56.896Z,75.08
2023-09-30T07:22:50.276Z,75.27
2023-09-30T07:23:32.296Z,75.23
2023-09-30T07:24:05.967Z,75.18
2023-09-30T07:24:40.816Z,75.32